Terminal Aerodrome Forecast
Issued by NWS St Louis, MO

Home | Current Version | Previous Version | Text Only | Print | Product List | Glossary On
Versions: 1 2 3 4 5 6 7 8 9 10 11 12 13 14 15 16 17 18 19 20 21 22 23 24 25 26
000
FTUS43 KLSX 270801 AAA
TAFSTL
TAF AMD
KSTL 270801Z 2708/2812 VRB03KT P6SM VCSH SCT040 SCT100
      TEMPO 2708/2710 BKN015
     FM271000 VRB03KT P6SM SCT250
     FM271800 15005KT P6SM SCT050
     FM280200 VRB04KT P6SM SCT250=

USA.gov is the U.S. government's official web portal to all federal, state and local government web resources and services.